Terminal Aerodrome Forecast
Issued by NWS Jackson, MS

Home | Current Version | Previous Version | Text Only | Print | Product List | Glossary On
Versions: 1 2 3 4 5 6 7 8 9 10 11 12 13 14 15 16
000
FTUS44 KJAN 211130
TAFHBG
TAF
KHBG 211130Z 2112/2212 30010G20KT 2SM -TSRA BR BKN015 OVC050CB
     FM211300 23009KT 6SM SHRA BR BKN025 BKN050
     FM211500 20006KT P6SM FEW050 SCT250
     FM220200 18008KT 5SM -SHRA BR VCTS BKN025CB BKN250
     FM220500 21010KT 2SM BR VCTS BKN003CB BKN250=

USA.gov is the U.S. government's official web portal to all federal, state and local government web resources and services.